Osage River (Missouri), Taberville (06918250)

StateMissouriLatestPoor (61 cfs)
RiverOsage RiverRatingObservedEstimated
Updated2020-09-23 0:45 (40 minutes ago)Flood - The river is flooding. Obstacles can be treacherous or deadly. The river should be avoided at this stage for casual trips and definitely for the inexperienced. Trips should be attempted only with protective gear and equipment.Flood(none)38403
Discharge61 cfs (median: 529 cfs)High - The river is high and potentially dangerous, especially for the young and / or inexperienced. Normal stream obstacles are sometimes difficult to navigate. Extended distances can be attempted, but canoe travel may not be advisable.High(none)7197
Height7.61 feetGood - Conditions are ideal for a canoe or kayak. Boats typically will drag on fewer than one-quarter of riffles, if at all, and portages are unnecessary or rare. Normal float lengths can be attempted without a problem.Good(none)4305
TrendRising (falling over 24 hours)Low - River is low but can still be floated. Some riffles are okay but most come with significant dragging and might need a portage. Float lengths should be reduced to accommodate low flow, dragging, and portages.Low(none)1188
USGSExternal icon USGS Site (External icon Google Maps)Poor - River is too low to float comfortably. Most or all riffles will drag or must be portaged and some obstacles (such as slick shelf rock) cause undue problems. Avoid the river at this stage for casual paddling trips.Poor(none)50

Trending Data

Plot Image

Trips for Osage River (Missouri), Taberville (06918250)

DateStartEndDistanceConditionDischargeHeightFishingDetails

A total of 0 rows are displayed.

Condition Descriptions

Fishing Conditions

Fish Species

Notes

Classic Trip List

The classic River Trips application is still available for use. It is updated with the new system using a data retrofit. It is no longer maintained. The original River Trips application is no longer updated (as of 1 Dec 2016) but can be checked for errors or for the condition of the data before it was converted to the new system.

Gauge Data Table

ObservationHeightDischargeMaximum
Discharge
Minimum
Discharge
Mean
Discharge
P05P10P20P25P50
(Median)
P75P80P90P95
2020-09-23 00:45 7.61 61 9520 (2019) 50 (2011) 1670 50 50 90 529 1790 2150 9520
2020-09-22 23:45 7.51 58 4880 (2019) 50 (2011) 1340 50 50 94 496 2670 3160 4880
2020-09-22 22:45 7.46 56 4880 (2019) 50 (2011) 1340 50 50 94 496 2670 3160 4880
2020-09-22 21:45 7.53 59 4880 (2019) 50 (2011) 1340 50 50 94 496 2670 3160 4880
2020-09-22 20:45 7.63 62 4880 (2019) 50 (2011) 1340 50 50 94 496 2670 3160 4880
2020-09-22 19:45 7.71 65 4880 (2019) 50 (2011) 1340 50 50 94 496 2670 3160 4880
2020-09-22 18:45 7.77 68 4880 (2019) 50 (2011) 1340 50 50 94 496 2670 3160 4880
2020-09-22 17:45 7.76 67 4880 (2019) 50 (2011) 1340 50 50 94 496 2670 3160 4880
2020-09-22 16:45 7.78 68 4880 (2019) 50 (2011) 1340 50 50 94 496 2670 3160 4880
2020-09-22 15:45 7.77 68 4880 (2019) 50 (2011) 1340 50 50 94 496 2670 3160 4880
2020-09-22 14:45 7.76 67 4880 (2019) 50 (2011) 1340 50 50 94 496 2670 3160 4880
2020-09-22 13:45 7.77 68 4880 (2019) 50 (2011) 1340 50 50 94 496 2670 3160 4880
2020-09-22 12:45 7.81 69 4880 (2019) 50 (2011) 1340 50 50 94 496 2670 3160 4880
2020-09-22 11:45 7.82 70 4880 (2019) 50 (2011) 1340 50 50 94 496 2670 3160 4880
2020-09-22 10:45 7.82 70 4880 (2019) 50 (2011) 1340 50 50 94 496 2670 3160 4880
2020-09-22 09:45 7.82 70 4880 (2019) 50 (2011) 1340 50 50 94 496 2670 3160 4880
2020-09-22 08:45 7.82 70 4880 (2019) 50 (2011) 1340 50 50 94 496 2670 3160 4880
2020-09-22 07:45 7.81 69 4880 (2019) 50 (2011) 1340 50 50 94 496 2670 3160 4880
2020-09-22 06:45 7.81 69 4880 (2019) 50 (2011) 1340 50 50 94 496 2670 3160 4880
2020-09-22 05:45 7.80 69 4880 (2019) 50 (2011) 1340 50 50 94 496 2670 3160 4880
2020-09-22 04:45 7.80 69 4880 (2019) 50 (2011) 1340 50 50 94 496 2670 3160 4880
2020-09-22 03:45 7.80 69 4880 (2019) 50 (2011) 1340 50 50 94 496 2670 3160 4880
2020-09-22 02:45 7.79 69 4880 (2019) 50 (2011) 1340 50 50 94 496 2670 3160 4880
2020-09-22 01:45 7.80 69 4880 (2019) 50 (2011) 1340 50 50 94 496 2670 3160 4880
2020-09-22 00:45 7.81 69 4880 (2019) 50 (2011) 1340 50 50 94 496 2670 3160 4880
2020-09-21 23:45 7.81 69 4550 (2017) 50 (2011) 1570 50 50 50 348 4030 4170 4550
2020-09-21 22:45 7.82 70 4550 (2017) 50 (2011) 1570 50 50 50 348 4030 4170 4550
2020-09-21 21:45 7.84 71 4550 (2017) 50 (2011) 1570 50 50 50 348 4030 4170 4550
2020-09-21 20:45 7.84 71 4550 (2017) 50 (2011) 1570 50 50 50 348 4030 4170 4550
2020-09-21 19:45 7.82 70 4550 (2017) 50 (2011) 1570 50 50 50 348 4030 4170 4550
2020-09-21 18:45 7.83 70 4550 (2017) 50 (2011) 1570 50 50 50 348 4030 4170 4550
2020-09-21 17:45 7.80 69 4550 (2017) 50 (2011) 1570 50 50 50 348 4030 4170 4550
2020-09-21 16:45 7.78 68 4550 (2017) 50 (2011) 1570 50 50 50 348 4030 4170 4550
2020-09-21 15:45 7.77 68 4550 (2017) 50 (2011) 1570 50 50 50 348 4030 4170 4550
2020-09-21 14:45 7.78 68 4550 (2017) 50 (2011) 1570 50 50 50 348 4030 4170 4550
2020-09-21 13:45 7.75 67 4550 (2017) 50 (2011) 1570 50 50 50 348 4030 4170 4550
2020-09-21 12:45 7.77 68 4550 (2017) 50 (2011) 1570 50 50 50 348 4030 4170 4550
2020-09-21 11:45 7.78 68 4550 (2017) 50 (2011) 1570 50 50 50 348 4030 4170 4550
2020-09-21 10:45 7.79 69 4550 (2017) 50 (2011) 1570 50 50 50 348 4030 4170 4550
2020-09-21 09:45 7.80 69 4550 (2017) 50 (2011) 1570 50 50 50 348 4030 4170 4550
2020-09-21 08:45 7.81 69 4550 (2017) 50 (2011) 1570 50 50 50 348 4030 4170 4550
2020-09-21 07:45 7.81 69 4550 (2017) 50 (2011) 1570 50 50 50 348 4030 4170 4550
2020-09-21 06:45 7.82 70 4550 (2017) 50 (2011) 1570 50 50 50 348 4030 4170 4550
2020-09-21 05:45 7.80 69 4550 (2017) 50 (2011) 1570 50 50 50 348 4030 4170 4550
2020-09-21 04:45 7.80 69 4550 (2017) 50 (2011) 1570 50 50 50 348 4030 4170 4550
2020-09-21 03:45 7.80 69 4550 (2017) 50 (2011) 1570 50 50 50 348 4030 4170 4550
2020-09-21 02:45 7.80 69 4550 (2017) 50 (2011) 1570 50 50 50 348 4030 4170 4550
2020-09-21 01:45 7.82 70 4550 (2017) 50 (2011) 1570 50 50 50 348 4030 4170 4550
2020-09-21 00:45 7.83 70 4550 (2017) 50 (2011) 1570 50 50 50 348 4030 4170 4550
2020-09-20 23:45 7.84 71 7130 (2017) 50 (2011) 2100 50 50 50 561 4990 5960 7130
2020-09-20 22:45 7.86 72 7130 (2017) 50 (2011) 2100 50 50 50 561 4990 5960 7130
2020-09-20 21:45 7.88 72 7130 (2017) 50 (2011) 2100 50 50 50 561 4990 5960 7130
2020-09-20 20:45 7.87 72 7130 (2017) 50 (2011) 2100 50 50 50 561 4990 5960 7130
2020-09-20 19:45 7.86 72 7130 (2017) 50 (2011) 2100 50 50 50 561 4990 5960 7130
2020-09-20 18:45 7.85 71 7130 (2017) 50 (2011) 2100 50 50 50 561 4990 5960 7130
2020-09-20 17:45 7.80 69 7130 (2017) 50 (2011) 2100 50 50 50 561 4990 5960 7130
2020-09-20 16:45 7.76 67 7130 (2017) 50 (2011) 2100 50 50 50 561 4990 5960 7130
2020-09-20 15:45 7.76 67 7130 (2017) 50 (2011) 2100 50 50 50 561 4990 5960 7130
2020-09-20 14:45 7.78 68 7130 (2017) 50 (2011) 2100 50 50 50 561 4990 5960 7130
2020-09-20 13:45 7.79 69 7130 (2017) 50 (2011) 2100 50 50 50 561 4990 5960 7130
2020-09-20 12:45 7.79 69 7130 (2017) 50 (2011) 2100 50 50 50 561 4990 5960 7130
2020-09-20 11:45 7.79 69 7130 (2017) 50 (2011) 2100 50 50 50 561 4990 5960 7130
2020-09-20 10:45 7.78 68 7130 (2017) 50 (2011) 2100 50 50 50 561 4990 5960 7130
2020-09-20 09:45 7.78 68 7130 (2017) 50 (2011) 2100 50 50 50 561 4990 5960 7130
2020-09-20 08:45 7.84 71 7130 (2017) 50 (2011) 2100 50 50 50 561 4990 5960 7130
2020-09-20 07:45 7.84 71 7130 (2017) 50 (2011) 2100 50 50 50 561 4990 5960 7130
2020-09-20 06:45 7.84 71 7130 (2017) 50 (2011) 2100 50 50 50 561 4990 5960 7130
2020-09-20 05:45 7.84 71 7130 (2017) 50 (2011) 2100 50 50 50 561 4990 5960 7130
2020-09-20 04:45 7.83 70 7130 (2017) 50 (2011) 2100 50 50 50 561 4990 5960 7130
2020-09-20 03:45 7.81 69 7130 (2017) 50 (2011) 2100 50 50 50 561 4990 5960 7130
2020-09-20 02:45 7.81 69 7130 (2017) 50 (2011) 2100 50 50 50 561 4990 5960 7130
2020-09-20 01:45 7.82 70 7130 (2017) 50 (2011) 2100 50 50 50 561 4990 5960 7130
2020-09-20 00:45 7.82 70 7130 (2017) 50 (2011) 2100 50 50 50 561 4990 5960 7130
2020-09-19 23:45 7.84 71 8230 (2016) 50 (2011) 2300 50 50 50 404 5260 6080 8230
2020-09-19 22:45 7.84 71 8230 (2016) 50 (2011) 2300 50 50 50 404 5260 6080 8230
2020-09-19 21:45 7.89 73 8230 (2016) 50 (2011) 2300 50 50 50 404 5260 6080 8230
2020-09-19 20:45 7.90 73 8230 (2016) 50 (2011) 2300 50 50 50 404 5260 6080 8230
2020-09-19 19:45 7.90 73 8230 (2016) 50 (2011) 2300 50 50 50 404 5260 6080 8230
2020-09-19 18:45 7.91 74 8230 (2016) 50 (2011) 2300 50 50 50 404 5260 6080 8230
2020-09-19 17:45 7.89 73 8230 (2016) 50 (2011) 2300 50 50 50 404 5260 6080 8230
2020-09-19 16:45 7.82 70 8230 (2016) 50 (2011) 2300 50 50 50 404 5260 6080 8230
2020-09-19 15:45 7.80 69 8230 (2016) 50 (2011) 2300 50 50 50 404 5260 6080 8230
2020-09-19 14:45 7.81 69 8230 (2016) 50 (2011) 2300 50 50 50 404 5260 6080 8230
2020-09-19 13:45 7.82 70 8230 (2016) 50 (2011) 2300 50 50 50 404 5260 6080 8230
2020-09-19 12:45 7.79 69 8230 (2016) 50 (2011) 2300 50 50 50 404 5260 6080 8230
2020-09-19 11:45 7.79 69 8230 (2016) 50 (2011) 2300 50 50 50 404 5260 6080 8230
2020-09-19 10:45 7.80 69 8230 (2016) 50 (2011) 2300 50 50 50 404 5260 6080 8230
2020-09-19 09:45 7.80 69 8230 (2016) 50 (2011) 2300 50 50 50 404 5260 6080 8230
2020-09-19 08:45 7.86 72 8230 (2016) 50 (2011) 2300 50 50 50 404 5260 6080 8230
2020-09-19 07:45 7.90 73 8230 (2016) 50 (2011) 2300 50 50 50 404 5260 6080 8230
2020-09-19 06:45 7.91 74 8230 (2016) 50 (2011) 2300 50 50 50 404 5260 6080 8230
2020-09-19 05:45 7.92 74 8230 (2016) 50 (2011) 2300 50 50 50 404 5260 6080 8230
2020-09-19 04:45 7.89 73 8230 (2016) 50 (2011) 2300 50 50 50 404 5260 6080 8230
2020-09-19 03:45 7.86 72 8230 (2016) 50 (2011) 2300 50 50 50 404 5260 6080 8230
2020-09-19 02:45 7.82 70 8230 (2016) 50 (2011) 2300 50 50 50 404 5260 6080 8230
2020-09-19 01:45 7.79 69 8230 (2016) 50 (2011) 2300 50 50 50 404 5260 6080 8230
2020-09-19 00:45 7.78 68 8230 (2016) 50 (2011) 2300 50 50 50 404 5260 6080 8230
2020-09-18 23:45 7.78 68 8920 (2016) 50 (2011) 2050 50 50 50 383 3780 5260 8920
2020-09-18 22:45 7.81 69 8920 (2016) 50 (2011) 2050 50 50 50 383 3780 5260 8920
2020-09-18 21:45 7.86 72 8920 (2016) 50 (2011) 2050 50 50 50 383 3780 5260 8920
2020-09-18 20:45 7.89 73 8920 (2016) 50 (2011) 2050 50 50 50 383 3780 5260 8920
2020-09-18 19:45 7.94 75 8920 (2016) 50 (2011) 2050 50 50 50 383 3780 5260 8920
2020-09-18 18:45 7.96 76 8920 (2016) 50 (2011) 2050 50 50 50 383 3780 5260 8920
2020-09-18 17:45 7.93 74 8920 (2016) 50 (2011) 2050 50 50 50 383 3780 5260 8920
2020-09-18 16:45 7.93 74 8920 (2016) 50 (2011) 2050 50 50 50 383 3780 5260 8920
2020-09-18 15:45 7.93 74 8920 (2016) 50 (2011) 2050 50 50 50 383 3780 5260 8920
2020-09-18 14:45 7.90 73 8920 (2016) 50 (2011) 2050 50 50 50 383 3780 5260 8920
2020-09-18 13:45 7.87 72 8920 (2016) 50 (2011) 2050 50 50 50 383 3780 5260 8920
2020-09-18 12:45 7.87 72 8920 (2016) 50 (2011) 2050 50 50 50 383 3780 5260 8920
2020-09-18 11:45 7.79 69 8920 (2016) 50 (2011) 2050 50 50 50 383 3780 5260 8920
2020-09-18 10:45 7.82 70 8920 (2016) 50 (2011) 2050 50 50 50 383 3780 5260 8920
2020-09-18 09:45 7.82 70 8920 (2016) 50 (2011) 2050 50 50 50 383 3780 5260 8920
2020-09-18 08:45 7.85 71 8920 (2016) 50 (2011) 2050 50 50 50 383 3780 5260 8920
2020-09-18 07:45 7.89 73 8920 (2016) 50 (2011) 2050 50 50 50 383 3780 5260 8920
2020-09-18 06:45 7.92 74 8920 (2016) 50 (2011) 2050 50 50 50 383 3780 5260 8920
2020-09-18 05:45 7.92 74 8920 (2016) 50 (2011) 2050 50 50 50 383 3780 5260 8920
2020-09-18 04:45 7.88 72 8920 (2016) 50 (2011) 2050 50 50 50 383 3780 5260 8920
2020-09-18 03:45 7.81 69 8920 (2016) 50 (2011) 2050 50 50 50 383 3780 5260 8920
2020-09-18 02:45 7.76 67 8920 (2016) 50 (2011) 2050 50 50 50 383 3780 5260 8920
2020-09-18 01:45 7.76 67 8920 (2016) 50 (2011) 2050 50 50 50 383 3780 5260 8920
2020-09-18 00:45 7.79 69 8920 (2016) 50 (2011) 2050 50 50 50 383 3780 5260 8920
2020-09-17 23:45 7.85 71 6970 (2016) 50 (2011) 1800 50 50 50 432 3830 5710 6970
2020-09-17 22:45 7.87 72 6970 (2016) 50 (2011) 1800 50 50 50 432 3830 5710 6970
2020-09-17 21:45 7.91 74 6970 (2016) 50 (2011) 1800 50 50 50 432 3830 5710 6970
2020-09-17 20:45 7.92 74 6970 (2016) 50 (2011) 1800 50 50 50 432 3830 5710 6970
2020-09-17 19:45 7.94 75 6970 (2016) 50 (2011) 1800 50 50 50 432 3830 5710 6970
2020-09-17 18:45 7.95 75 6970 (2016) 50 (2011) 1800 50 50 50 432 3830 5710 6970
2020-09-17 17:45 7.95 75 6970 (2016) 50 (2011) 1800 50 50 50 432 3830 5710 6970
2020-09-17 16:45 7.95 75 6970 (2016) 50 (2011) 1800 50 50 50 432 3830 5710 6970
2020-09-17 15:45 7.97 77 6970 (2016) 50 (2011) 1800 50 50 50 432 3830 5710 6970
2020-09-17 14:45 7.97 77 6970 (2016) 50 (2011) 1800 50 50 50 432 3830 5710 6970
2020-09-17 13:45 7.98 78 6970 (2016) 50 (2011) 1800 50 50 50 432 3830 5710 6970
2020-09-17 12:45 8.01 81 6970 (2016) 50 (2011) 1800 50 50 50 432 3830 5710 6970
2020-09-17 11:45 8.02 81 6970 (2016) 50 (2011) 1800 50 50 50 432 3830 5710 6970
2020-09-17 10:45 8.06 85 6970 (2016) 50 (2011) 1800 50 50 50 432 3830 5710 6970
2020-09-17 09:45 8.08 87 6970 (2016) 50 (2011) 1800 50 50 50 432 3830 5710 6970
2020-09-17 08:45 8.05 84 6970 (2016) 50 (2011) 1800 50 50 50 432 3830 5710 6970
2020-09-17 07:45 7.99 79 6970 (2016) 50 (2011) 1800 50 50 50 432 3830 5710 6970
2020-09-17 06:45 7.91 74 6970 (2016) 50 (2011) 1800 50 50 50 432 3830 5710 6970
2020-09-17 05:45 7.88 72 6970 (2016) 50 (2011) 1800 50 50 50 432 3830 5710 6970
2020-09-17 04:45 7.92 74 6970 (2016) 50 (2011) 1800 50 50 50 432 3830 5710 6970
2020-09-17 03:45 7.95 75 6970 (2016) 50 (2011) 1800 50 50 50 432 3830 5710 6970
2020-09-17 02:45 7.94 75 6970 (2016) 50 (2011) 1800 50 50 50 432 3830 5710 6970
2020-09-17 01:45 7.86 72 6970 (2016) 50 (2011) 1800 50 50 50 432 3830 5710 6970
2020-09-17 00:45 7.77 68 6970 (2016) 50 (2011) 1800 50 50 50 432 3830 5710 6970
2020-09-16 23:45 7.67 63 6390 (2019) 50 (2011) 1560 50 50 50 450 3200 5730 6390
2020-09-16 22:45 7.67 63 6390 (2019) 50 (2011) 1560 50 50 50 450 3200 5730 6390
2020-09-16 21:45 7.75 67 6390 (2019) 50 (2011) 1560 50 50 50 450 3200 5730 6390
2020-09-16 20:45 7.86 72 6390 (2019) 50 (2011) 1560 50 50 50 450 3200 5730 6390
2020-09-16 19:45 7.97 77 6390 (2019) 50 (2011) 1560 50 50 50 450 3200 5730 6390
2020-09-16 18:45 8.01 81 6390 (2019) 50 (2011) 1560 50 50 50 450 3200 5730 6390
2020-09-16 17:45 8.02 81 6390 (2019) 50 (2011) 1560 50 50 50 450 3200 5730 6390
2020-09-16 16:45 8.03 82 6390 (2019) 50 (2011) 1560 50 50 50 450 3200 5730 6390
2020-09-16 15:45 7.97 77 6390 (2019) 50 (2011) 1560 50 50 50 450 3200 5730 6390
2020-09-16 14:45 8.01 81 6390 (2019) 50 (2011) 1560 50 50 50 450 3200 5730 6390
2020-09-16 13:45 7.99 79 6390 (2019) 50 (2011) 1560 50 50 50 450 3200 5730 6390
2020-09-16 12:45 8.00 80 6390 (2019) 50 (2011) 1560 50 50 50 450 3200 5730 6390
2020-09-16 11:45 8.00 80 6390 (2019) 50 (2011) 1560 50 50 50 450 3200 5730 6390
2020-09-16 10:45 8.00 80 6390 (2019) 50 (2011) 1560 50 50 50 450 3200 5730 6390
2020-09-16 09:45 7.99 79 6390 (2019) 50 (2011) 1560 50 50 50 450 3200 5730 6390
2020-09-16 08:45 7.98 78 6390 (2019) 50 (2011) 1560 50 50 50 450 3200 5730 6390
2020-09-16 07:45 7.97 77 6390 (2019) 50 (2011) 1560 50 50 50 450 3200 5730 6390
2020-09-16 06:45 7.96 76 6390 (2019) 50 (2011) 1560 50 50 50 450 3200 5730 6390
2020-09-16 05:45 7.98 78 6390 (2019) 50 (2011) 1560 50 50 50 450 3200 5730 6390
2020-09-16 04:45 8.00 80 6390 (2019) 50 (2011) 1560 50 50 50 450 3200 5730 6390
2020-09-16 03:45 7.98 78 6390 (2019) 50 (2011) 1560 50 50 50 450 3200 5730 6390
2020-09-16 02:45 7.98 78 6390 (2019) 50 (2011) 1560 50 50 50 450 3200 5730 6390
2020-09-16 01:45 7.95 75 6390 (2019) 50 (2011) 1560 50 50 50 450 3200 5730 6390
2020-09-16 00:45 7.92 74 6390 (2019) 50 (2011) 1560 50 50 50 450 3200 5730 6390

A total of 169 rows are displayed for years 2011 through 2019.